Braceville, Illinois
Current Conditions -  °F | °C
As of 3:15 PM on Thursday 20 Nov 2014 (Local Time) from KC09 Reporting Station
Clear Clear  
Wind Chill: 16°   Ceiling: Unl
Heat Index: 29°   Visibility: 10mi
Dew Point:   Wind: 21mph
Humidity: 39%   Direction: 290°WNW
Pressure: 30.12"   Gusts: 26mph
Location:  41.23°N, 88.26°W
Report Text: KC09 202115Z AUTO 29018G23KT 10SM CLR M02/M14 A3012 RMK AO2 T10181141
Loading
Personal Weather Stations






























Interactive Weather Map New forecast layout! Learn more

10-Day Weather Forecast

Advertisements
Track Severe Weather on mobile